Date,TemperatureHighF,TemperatureAvgF,TemperatureLowF,DewpointHighF,DewpointAvgF,DewpointLowF,HumidityHigh,HumidityAvg,HumidityLow,PressureMaxIn,PressureMinIn,WindSpeedMaxMPH,WindSpeedAvgMPH,GustSpeedMaxMPH,PrecipitationSumIn
2013-1-1,62.0,53.5,44.0,55.0,48.8,43.0,100,85,61,30.13,30.01,5,2,16,0.00
2013-1-2,65.0,50.6,43.0,52.0,47.4,43.0,100,89,62,30.33,30.09,7,2,17,0.01
2013-1-3,65.0,52.1,43.0,54.0,48.1,38.0,100,87,62,30.64,30.32,11,5,35,0.17
2013-1-4,61.0,50.1,37.0,52.0,42.8,37.0,100,78,51,30.64,30.50,15,4,27,0.01
2013-1-5,75.0,56.6,46.0,50.0,40.9,35.0,81,57,35,30.50,30.28,9,3,16,0.00
2013-1-6,75.0,58.1,42.0,53.0,44.8,39.0,100,64,38,30.35,30.26,5,2,11,0.00
2013-1-7,83.0,55.3,39.0,59.0,46.1,36.0,100,74,32,30.29,30.17,4,1,11,0.00
2013-1-8,72.0,50.8,38.0,59.0,47.1,38.0,100,88,62,30.32,30.25,3,1,7,0.00
2013-1-9,65.0,48.8,35.0,55.0,44.7,35.0,99,87,62,30.29,30.13,8,2,17,0.00
2013-1-10,65.0,55.9,43.0,54.0,48.3,41.0,100,77,56,30.14,30.06,13,4,42,0.00
2013-1-11,67.0,55.2,39.0,52.0,47.3,37.0,100,76,53,30.16,30.09,9,3,29,0.00
2013-1-12,65.0,48.3,36.0,56.0,44.6,36.0,100,88,61,30.14,29.96,7,2,16,0.00
2013-1-13,57.0,52.5,46.0,52.0,45.5,41.0,99,78,63,29.95,29.78,15,6,29,0.19
2013-1-14,59.0,50.4,39.0,49.0,43.6,39.0,99,78,60,30.01,29.90,9,3,30,0.01
2013-1-15,58.0,51.2,42.0,48.0,44.6,42.0,100,78,60,29.96,29.80,13,5,28,0.01
2013-1-16,62.0,55.5,51.0,53.0,47.9,43.0,88,76,59,29.92,29.62,12,6,33,0.02
2013-1-17,59.0,52.3,41.0,54.0,47.2,41.0,100,83,59,29.83,29.62,14,4,32,0.02
2013-1-18,64.0,56.7,46.0,58.0,51.2,43.0,100,82,67,29.78,29.51,17,4,36,0.04
2013-1-19,66.0,58.7,51.0,60.0,55.0,49.0,100,89,57,29.51,29.09,10,5,31,0.18
2013-1-20,55.0,50.9,41.0,54.0,47.1,41.0,100,87,66,29.61,29.10,11,4,24,0.13
2013-1-21,58.0,53.0,41.0,52.0,45.4,37.0,99,76,56,29.87,29.54,13,5,30,0.02
2013-1-22,59.0,49.7,37.0,51.0,40.8,35.0,100,73,52,29.87,29.51,13,5,33,0.11
2013-1-23,52.0,50.0,45.0,45.0,39.6,38.0,99,68,60,29.83,29.51,12,7,36,0.43
2013-1-24,52.0,48.2,42.0,51.0,43.5,34.0,100,85,51,29.82,29.57,15,6,36,0.78
2013-1-25,59.0,48.4,39.0,46.0,41.7,36.0,100,79,56,29.93,29.75,15,3,36,0.04
2013-1-26,60.0,47.9,37.0,51.0,44.2,35.0,99,88,65,30.12,29.74,12,3,31,0.17
2013-1-27,67.0,50.3,40.0,57.0,47.5,40.0,99,91,62,30.12,29.85,4,2,9,0.01
2013-1-28,62.0,53.3,45.0,55.0,49.0,44.0,100,86,62,30.32,29.83,18,5,36,0.32
2013-1-29,64.0,50.7,40.0,57.0,47.5,40.0,100,89,70,30.39,30.31,5,2,11,0.02
2013-1-30,71.0,50.4,37.0,58.0,45.6,37.0,100,86,46,30.36,30.28,5,2,12,0.00
2013-1-31,74.0,53.1,44.0,55.0,48.9,43.0,100,88,51,30.40,30.34,4,1,10,0.00